Time;durP1;ratioP1;P1;durP2;ratioP2;P2;SDS_P1;SDS_P2;PMS_P1;PMS_P2;Temp;Humidity;BMP_temperature;BMP_pressure;BME280_temperature;BME280_humidity;BME280_pressure;Samples;Min_cycle;Max_cycle;Signal;HPM_P1;HPM_P2
2023/09/10 00:01:20;;;;;;;18.67;2.20;;;;;;;;;;5092843;28;20034;-37
2023/09/10 00:03:47;;;;;;;16.80;2.80;;;;;;;;;;5093349;28;20024;-37
2023/09/10 00:06:14;;;;;;;23.33;2.67;;;;;;;;;;5091561;28;20081;-37
2023/09/10 00:08:41;;;;;;;22.20;2.65;;;;;;;;;;5081393;28;20033;-37
2023/09/10 00:11:08;;;;;;;29.33;3.05;;;;;;;;;;5092263;28;20485;-38
2023/09/10 00:13:36;;;;;;;19.60;2.88;;;;;;;;;;5093578;28;20123;-37
2023/09/10 00:16:03;;;;;;;16.55;2.30;;;;;;;;;;5092124;28;20039;-37
2023/09/10 00:18:30;;;;;;;21.50;2.65;;;;;;;;;;5093592;28;20031;-37
2023/09/10 00:20:57;;;;;;;12.90;2.00;;;;;;;;;;5090671;28;20019;-38
2023/09/10 00:23:24;;;;;;;23.50;3.00;;;;;;;;;;5093153;28;20024;-38
2023/09/10 00:25:51;;;;;;;21.85;3.30;;;;;;;;;;5091478;28;20047;-38
2023/09/10 00:28:18;;;;;;;14.68;2.00;;;;;;;;;;5085490;28;20039;-37
2023/09/10 00:30:52;;;;;;;21.35;3.08;;;;;;;;;;5090767;28;20043;-38
2023/09/10 00:33:19;;;;;;;18.35;2.10;;;;;;;;;;5092224;28;20070;-37
2023/09/10 00:35:46;;;;;;;16.65;2.60;;;;;;;;;;5089299;28;20090;-37
2023/09/10 00:38:13;;;;;;;20.27;2.40;;;;;;;;;;5092732;28;20032;-37
2023/09/10 00:40:40;;;;;;;16.00;2.17;;;;;;;;;;5092715;28;20027;-37
2023/09/10 00:43:07;;;;;;;17.45;2.40;;;;;;;;;;5092366;28;20111;-38
2023/09/10 00:45:34;;;;;;;18.13;2.25;;;;;;;;;;5088828;28;20844;-38
2023/09/10 00:48:01;;;;;;;12.63;2.38;;;;;;;;;;5076459;28;20094;-37
2023/09/10 00:50:28;;;;;;;25.23;3.10;;;;;;;;;;5089842;28;20162;-38
2023/09/10 00:52:58;;;;;;;11.43;1.70;;;;;;;;;;5092102;28;20065;-36
2023/09/10 00:55:26;;;;;;;8.68;1.83;;;;;;;;;;5084174;28;20025;-38
2023/09/10 00:57:53;;;;;;;19.80;2.42;;;;;;;;;;5081491;28;20036;-39
2023/09/10 01:00:20;;;;;;;23.98;3.10;;;;;;;;;;5083217;28;20064;-39
2023/09/10 01:02:49;;;;;;;21.88;2.42;;;;;;;;;;5082117;28;20036;-38
2023/09/10 01:05:17;;;;;;;16.27;2.30;;;;;;;;;;5081119;28;20032;-37
2023/09/10 01:07:45;;;;;;;14.60;2.38;;;;;;;;;;5082364;28;20028;-37
2023/09/10 01:10:12;;;;;;;16.80;2.28;;;;;;;;;;5072299;28;20494;-38
2023/09/10 01:12:57;;;;;;;13.98;2.00;;;;;;;;;;5072378;28;20497;-38
2023/09/10 01:15:29;;;;;;;15.27;2.30;;;;;;;;;;5072399;28;20024;-38
2023/09/10 01:18:00;;;;;;;14.77;2.45;;;;;;;;;;5072488;28;20028;-38
2023/09/10 01:20:45;;;;;;;16.13;2.20;;;;;;;;;;5072387;28;20042;-38
2023/09/10 01:23:27;;;;;;;22.17;2.60;;;;;;;;;;5072169;28;20049;-37
2023/09/10 01:25:55;;;;;;;16.35;1.90;;;;;;;;;;5072081;28;20029;-38
2023/09/10 01:28:22;;;;;;;13.43;2.10;;;;;;;;;;5071750;28;20422;-38
2023/09/10 01:30:49;;;;;;;15.90;2.17;;;;;;;;;;5072041;28;20040;-37
2023/09/10 01:33:41;;;;;;;14.10;1.90;;;;;;;;;;5084659;28;20086;-38
2023/09/10 01:36:32;;;;;;;12.90;2.00;;;;;;;;;;5087805;28;20063;-37
2023/09/10 01:39:07;;;;;;;10.13;1.95;;;;;;;;;;5081924;28;20031;-37
2023/09/10 01:41:35;;;;;;;13.43;2.50;;;;;;;;;;5081906;28;20118;-37
2023/09/10 01:44:03;;;;;;;11.55;1.70;;;;;;;;;;5085577;28;20032;-38
2023/09/10 01:46:30;;;;;;;12.73;1.67;;;;;;;;;;5090970;28;20039;-37
2023/09/10 01:48:58;;;;;;;12.80;1.73;;;;;;;;;;5091669;28;20032;-37
2023/09/10 01:51:26;;;;;;;11.23;2.05;;;;;;;;;;5085262;28;20040;-38
2023/09/10 01:53:53;;;;;;;13.88;2.03;;;;;;;;;;5091569;28;20121;-38
2023/09/10 01:56:21;;;;;;;16.50;1.80;;;;;;;;;;5091835;28;20032;-38
2023/09/10 01:58:48;;;;;;;8.13;1.70;;;;;;;;;;5091443;28;20035;-37
2023/09/10 02:01:15;;;;;;;11.20;2.10;;;;;;;;;;5091433;28;20032;-37
2023/09/10 02:03:42;;;;;;;9.70;1.77;;;;;;;;;;5091240;28;20111;-37
2023/09/10 02:06:10;;;;;;;13.95;1.80;;;;;;;;;;5091602;28;20559;-37
2023/09/10 02:08:37;;;;;;;17.90;2.22;;;;;;;;;;5091123;28;20032;-38
2023/09/10 02:11:05;;;;;;;14.48;2.20;;;;;;;;;;5091273;28;20039;-38
2023/09/10 02:13:33;;;;;;;15.18;1.90;;;;;;;;;;5091073;28;20032;-38
2023/09/10 02:16:00;;;;;;;11.93;1.90;;;;;;;;;;5091532;28;20042;-38
2023/09/10 02:18:29;;;;;;;10.27;1.50;;;;;;;;;;5091258;28;20066;-37
2023/09/10 02:20:56;;;;;;;11.40;1.55;;;;;;;;;;5090704;28;20039;-37
2023/09/10 02:23:24;;;;;;;13.90;1.58;;;;;;;;;;5072710;28;20038;-37
2023/09/10 02:25:51;;;;;;;7.95;1.20;;;;;;;;;;5090409;28;20119;-38
2023/09/10 02:28:23;;;;;;;6.30;1.40;;;;;;;;;;5072968;28;20032;-38
2023/09/10 02:30:50;;;;;;;6.10;1.10;;;;;;;;;;5090971;28;20040;-37
2023/09/10 02:33:17;;;;;;;8.48;1.30;;;;;;;;;;5091022;28;20310;-38
2023/09/10 02:35:45;;;;;;;7.15;1.20;;;;;;;;;;5091274;28;20103;-38
2023/09/10 02:38:12;;;;;;;10.70;1.27;;;;;;;;;;5092585;28;20020;-37
2023/09/10 02:40:39;;;;;;;8.02;1.45;;;;;;;;;;5095121;28;20035;-37
2023/09/10 02:43:06;;;;;;;5.68;1.08;;;;;;;;;;5095240;28;20123;-37
2023/09/10 02:45:33;;;;;;;9.20;1.42;;;;;;;;;;5081788;28;20634;-37
2023/09/10 02:48:00;;;;;;;3.08;0.95;;;;;;;;;;5095105;28;20050;-39
2023/09/10 02:50:27;;;;;;;3.65;1.00;;;;;;;;;;5094664;28;20043;-37
2023/09/10 02:52:54;;;;;;;4.15;0.98;;;;;;;;;;5094827;28;20393;-38
2023/09/10 02:55:22;;;;;;;6.10;1.02;;;;;;;;;;5095262;28;20075;-37
2023/09/10 02:57:49;;;;;;;6.90;1.15;;;;;;;;;;5095143;28;20393;-38
2023/09/10 03:00:19;;;;;;;3.67;1.00;;;;;;;;;;5094890;28;20031;-38
2023/09/10 03:02:46;;;;;;;5.05;1.00;;;;;;;;;;5094680;28;20040;-38
2023/09/10 03:05:14;;;;;;;4.97;1.00;;;;;;;;;;5094860;28;20052;-37
2023/09/10 03:07:41;;;;;;;6.25;1.05;;;;;;;;;;5094310;28;20110;-38
2023/09/10 03:10:09;;;;;;;5.85;1.02;;;;;;;;;;5094628;28;20185;-38
2023/09/10 03:12:36;;;;;;;6.10;0.90;;;;;;;;;;5094358;28;20871;-42
2023/09/10 03:15:05;;;;;;;3.92;0.80;;;;;;;;;;5094902;28;20132;-38
2023/09/10 03:17:33;;;;;;;8.32;0.93;;;;;;;;;;5091020;28;20028;-38
2023/09/10 03:20:00;;;;;;;10.82;1.10;;;;;;;;;;5074470;28;20016;-38
2023/09/10 03:22:27;;;;;;;4.40;0.88;;;;;;;;;;5091128;28;20042;-38
2023/09/10 03:24:55;;;;;;;4.60;0.82;;;;;;;;;;5094528;28;20074;-38
2023/09/10 03:27:22;;;;;;;8.45;1.17;;;;;;;;;;5085795;28;20051;-38
2023/09/10 03:29:49;;;;;;;9.60;0.98;;;;;;;;;;5093812;28;20031;-37
2023/09/10 03:32:16;;;;;;;6.28;1.08;;;;;;;;;;5092556;28;20027;-37
2023/09/10 03:34:43;;;;;;;7.22;1.00;;;;;;;;;;5087864;28;20047;-37
2023/09/10 03:37:10;;;;;;;7.65;1.20;;;;;;;;;;5090781;28;20032;-38
2023/09/10 03:39:37;;;;;;;11.40;1.40;;;;;;;;;;5084263;28;20107;-37
2023/09/10 03:42:04;;;;;;;4.60;1.20;;;;;;;;;;5083451;28;20017;-37
2023/09/10 03:44:31;;;;;;;7.75;1.45;;;;;;;;;;5083613;28;20031;-37
2023/09/10 03:46:58;;;;;;;8.27;1.35;;;;;;;;;;5084000;28;20044;-37
2023/09/10 03:49:25;;;;;;;5.68;1.52;;;;;;;;;;5085616;28;20016;-37
2023/09/10 03:51:53;;;;;;;6.78;1.40;;;;;;;;;;5093012;28;20681;-38
2023/09/10 03:54:20;;;;;;;7.95;1.80;;;;;;;;;;5092955;28;20094;-37
2023/09/10 03:56:47;;;;;;;6.00;1.50;;;;;;;;;;5091826;28;20032;-38
2023/09/10 03:59:14;;;;;;;8.90;1.80;;;;;;;;;;5092889;28;20040;-37
2023/09/10 04:01:41;;;;;;;8.75;1.80;;;;;;;;;;5064945;28;20115;-37
2023/09/10 04:04:08;;;;;;;10.68;2.17;;;;;;;;;;5091822;28;20544;-37
2023/09/10 04:06:35;;;;;;;6.15;1.80;;;;;;;;;;5091117;28;20059;-37
2023/09/10 04:09:03;;;;;;;6.78;2.28;;;;;;;;;;5093149;28;20401;-37
2023/09/10 04:11:34;;;;;;;4.82;1.80;;;;;;;;;;5092931;28;20036;-37
2023/09/10 04:14:01;;;;;;;6.28;1.90;;;;;;;;;;5090529;28;20032;-37
2023/09/10 04:16:28;;;;;;;6.28;1.80;;;;;;;;;;5093888;28;20040;-37
2023/09/10 04:18:56;;;;;;;10.63;1.85;;;;;;;;;;5093747;28;20105;-37
2023/09/10 04:21:22;;;;;;;7.55;1.88;;;;;;;;;;5093592;28;20056;-37
2023/09/10 04:23:50;;;;;;;6.88;2.20;;;;;;;;;;5093565;28;20049;-37
2023/09/10 04:26:17;;;;;;;7.82;1.80;;;;;;;;;;5093516;28;20035;-37
2023/09/10 04:28:44;;;;;;;8.88;2.00;;;;;;;;;;5093437;28;20035;-37
2023/09/10 04:31:13;;;;;;;8.45;2.30;;;;;;;;;;5093400;28;20028;-37
2023/09/10 04:33:40;;;;;;;4.68;1.30;;;;;;;;;;5093515;28;20163;-37
2023/09/10 04:36:07;;;;;;;2.72;1.35;;;;;;;;;;5093497;28;20548;-37
2023/09/10 04:38:34;;;;;;;5.15;1.70;;;;;;;;;;5093488;28;20098;-37
2023/09/10 04:41:01;;;;;;;7.72;1.85;;;;;;;;;;5093416;28;20035;-37
2023/09/10 04:43:28;;;;;;;3.95;1.85;;;;;;;;;;5093212;28;20028;-38
2023/09/10 04:45:55;;;;;;;4.53;1.77;;;;;;;;;;5093470;28;20031;-37
2023/09/10 04:48:22;;;;;;;5.28;1.60;;;;;;;;;;5093088;28;20058;-37
2023/09/10 04:50:49;;;;;;;10.20;1.58;;;;;;;;;;5093243;28;20031;-37
2023/09/10 04:53:18;;;;;;;6.65;1.50;;;;;;;;;;5093198;28;20069;-37
2023/09/10 04:55:45;;;;;;;7.00;1.30;;;;;;;;;;5093013;28;20104;-37
2023/09/10 04:58:13;;;;;;;4.05;1.55;;;;;;;;;;5092991;28;20028;-37
2023/09/10 05:00:41;;;;;;;4.82;1.50;;;;;;;;;;5093057;28;20094;-37
2023/09/10 05:03:08;;;;;;;5.97;1.63;;;;;;;;;;5093031;28;20546;-37
2023/09/10 05:05:35;;;;;;;5.55;1.40;;;;;;;;;;5092948;28;20074;-37
2023/09/10 05:08:02;;;;;;;5.88;1.58;;;;;;;;;;5092805;28;20474;-38
2023/09/10 05:10:30;;;;;;;5.82;1.30;;;;;;;;;;5092854;28;20036;-37
2023/09/10 05:12:57;;;;;;;4.55;1.55;;;;;;;;;;5092689;28;20036;-38
2023/09/10 05:15:24;;;;;;;5.82;1.42;;;;;;;;;;5092680;28;20051;-38
2023/09/10 05:17:51;;;;;;;3.13;1.35;;;;;;;;;;5092643;28;20510;-37
2023/09/10 05:20:18;;;;;;;3.25;1.60;;;;;;;;;;5092651;28;20550;-37
2023/09/10 05:22:45;;;;;;;6.28;1.25;;;;;;;;;;5092528;28;20027;-37
2023/09/10 05:25:12;;;;;;;6.10;1.63;;;;;;;;;;5092493;28;20036;-37
2023/09/10 05:27:39;;;;;;;3.53;1.42;;;;;;;;;;5092421;28;20035;-37
2023/09/10 05:30:07;;;;;;;3.22;1.30;;;;;;;;;;5092512;28;20036;-37
2023/09/10 05:32:34;;;;;;;6.50;1.60;;;;;;;;;;5092341;28;20036;-37
2023/09/10 05:35:01;;;;;;;4.80;1.48;;;;;;;;;;5092351;28;20421;-37
2023/09/10 05:37:28;;;;;;;5.45;1.15;;;;;;;;;;5092310;28;20021;-37
2023/09/10 05:39:54;;;;;;;4.03;1.17;;;;;;;;;;5092417;28;20032;-37
2023/09/10 05:42:21;;;;;;;3.40;1.20;;;;;;;;;;5092222;28;20390;-37
2023/09/10 05:44:55;;;;;;;3.15;1.13;;;;;;;;;;5092348;28;20039;-37
2023/09/10 05:47:22;;;;;;;5.57;1.38;;;;;;;;;;5092131;28;20052;-37
2023/09/10 05:49:49;;;;;;;9.00;1.50;;;;;;;;;;5092158;28;20024;-37
2023/09/10 05:52:16;;;;;;;10.02;1.70;;;;;;;;;;5092132;28;20465;-37
2023/09/10 05:54:43;;;;;;;10.77;1.70;;;;;;;;;;5092188;28;20016;-38
2023/09/10 05:57:10;;;;;;;5.65;1.20;;;;;;;;;;5092141;28;20047;-37
2023/09/10 05:59:37;;;;;;;5.05;1.17;;;;;;;;;;5092058;28;20025;-37
2023/09/10 06:02:04;;;;;;;6.30;1.30;;;;;;;;;;5091309;28;20024;-37
2023/09/10 06:04:33;;;;;;;6.03;1.30;;;;;;;;;;5091746;28;20024;-37
2023/09/10 06:07:03;;;;;;;7.60;1.40;;;;;;;;;;5091902;28;20504;-37
2023/09/10 06:09:31;;;;;;;11.98;1.63;;;;;;;;;;5091691;28;20074;-37
2023/09/10 06:11:58;;;;;;;6.68;1.40;;;;;;;;;;5091790;28;20062;-37
2023/09/10 06:14:25;;;;;;;6.38;1.27;;;;;;;;;;5091462;28;20028;-37
2023/09/10 06:16:52;;;;;;;5.05;1.10;;;;;;;;;;5091791;28;20029;-37
2023/09/10 06:19:19;;;;;;;10.48;1.42;;;;;;;;;;5091843;28;20035;-37
2023/09/10 06:21:46;;;;;;;4.03;0.98;;;;;;;;;;5091337;28;20404;-38
2023/09/10 06:24:13;;;;;;;6.05;1.23;;;;;;;;;;5091702;28;20043;-37
2023/09/10 06:26:40;;;;;;;5.30;1.30;;;;;;;;;;5091859;28;20099;-37
2023/09/10 06:29:07;;;;;;;9.13;1.50;;;;;;;;;;5091528;28;20021;-38
2023/09/10 06:31:34;;;;;;;6.18;1.30;;;;;;;;;;5091588;28;20078;-38
2023/09/10 06:34:01;;;;;;;8.25;1.50;;;;;;;;;;5091552;28;20032;-37
2023/09/10 06:36:28;;;;;;;10.50;1.30;;;;;;;;;;5091524;28;20028;-37
2023/09/10 06:38:55;;;;;;;8.73;1.67;;;;;;;;;;5091627;28;20066;-37
2023/09/10 06:41:21;;;;;;;11.25;1.75;;;;;;;;;;5091562;28;20028;-38
2023/09/10 06:43:48;;;;;;;5.38;1.23;;;;;;;;;;5091529;28;20075;-37
2023/09/10 06:46:15;;;;;;;7.30;1.50;;;;;;;;;;5091354;28;20676;-37
2023/09/10 06:48:42;;;;;;;5.90;1.45;;;;;;;;;;5091409;28;20048;-37
2023/09/10 06:51:09;;;;;;;8.40;1.85;;;;;;;;;;5091384;28;20528;-38
2023/09/10 06:53:36;;;;;;;12.45;1.60;;;;;;;;;;5091240;28;20032;-37
2023/09/10 06:56:03;;;;;;;6.85;1.63;;;;;;;;;;5091446;28;20020;-37
2023/09/10 06:58:30;;;;;;;5.10;1.20;;;;;;;;;;5091263;28;20591;-37
2023/09/10 07:00:57;;;;;;;7.15;1.25;;;;;;;;;;5091383;28;20027;-37
2023/09/10 07:03:24;;;;;;;7.45;1.50;;;;;;;;;;5091100;28;20024;-37
2023/09/10 07:05:51;;;;;;;10.35;1.50;;;;;;;;;;5091306;28;20102;-37
2023/09/10 07:08:18;;;;;;;4.35;1.00;;;;;;;;;;5091131;28;20034;-37
2023/09/10 07:10:45;;;;;;;6.28;1.20;;;;;;;;;;5090987;28;20051;-37
2023/09/10 07:13:12;;;;;;;4.20;1.42;;;;;;;;;;5090981;28;20428;-37
2023/09/10 07:15:39;;;;;;;6.80;1.30;;;;;;;;;;5091202;28;20565;-37
2023/09/10 07:18:07;;;;;;;10.50;1.33;;;;;;;;;;5091189;28;20715;-37
2023/09/10 07:20:34;;;;;;;9.35;1.50;;;;;;;;;;5090936;28;20028;-37
2023/09/10 07:23:01;;;;;;;8.02;1.40;;;;;;;;;;5090957;28;20016;-37
2023/09/10 07:25:28;;;;;;;11.18;1.33;;;;;;;;;;5092685;28;20101;-37
2023/09/10 07:27:54;;;;;;;7.85;1.42;;;;;;;;;;5094833;28;20482;-37
2023/09/10 07:30:21;;;;;;;13.18;1.80;;;;;;;;;;5094653;28;20036;-38
2023/09/10 07:32:48;;;;;;;6.38;1.60;;;;;;;;;;5094652;28;20103;-37
2023/09/10 07:35:16;;;;;;;11.10;1.70;;;;;;;;;;5094718;28;20024;-37
2023/09/10 07:37:43;;;;;;;8.90;1.20;;;;;;;;;;5094720;28;20066;-37
2023/09/10 07:40:11;;;;;;;7.85;1.23;;;;;;;;;;5094607;28;20111;-37
2023/09/10 07:42:38;;;;;;;8.88;1.80;;;;;;;;;;5094529;28;20054;-37
2023/09/10 07:45:05;;;;;;;12.80;1.60;;;;;;;;;;5094591;28;20029;-37
2023/09/10 07:47:33;;;;;;;8.73;1.45;;;;;;;;;;5094082;28;20056;-37
2023/09/10 07:50:00;;;;;;;5.30;1.40;;;;;;;;;;5094228;28;20039;-37
2023/09/10 07:52:27;;;;;;;8.88;1.23;;;;;;;;;;5094296;28;20536;-37
2023/09/10 07:54:54;;;;;;;6.00;1.25;;;;;;;;;;5094447;28;20023;-37
2023/09/10 07:57:21;;;;;;;3.90;1.15;;;;;;;;;;5094287;28;20021;-38
2023/09/10 07:59:48;;;;;;;6.68;1.30;;;;;;;;;;5094234;28;20042;-38
2023/09/10 08:02:15;;;;;;;10.73;1.40;;;;;;;;;;5094053;28;20020;-37
2023/09/10 08:04:43;;;;;;;3.72;1.30;;;;;;;;;;5094207;28;20103;-37
2023/09/10 08:07:10;;;;;;;7.22;1.30;;;;;;;;;;5093981;28;20031;-37
2023/09/10 08:09:40;;;;;;;3.75;1.13;;;;;;;;;;5094068;28;20059;-37
2023/09/10 08:12:07;;;;;;;3.28;1.40;;;;;;;;;;5093920;28;20569;-37
2023/09/10 08:14:35;;;;;;;5.30;1.58;;;;;;;;;;5093987;28;20021;-37
2023/09/10 08:17:03;;;;;;;5.95;1.50;;;;;;;;;;5093862;28;20028;-37
2023/09/10 08:19:30;;;;;;;2.28;1.10;;;;;;;;;;5093877;28;20103;-37
2023/09/10 08:21:56;;;;;;;3.63;1.65;;;;;;;;;;5093757;28;20028;-37
2023/09/10 08:24:23;;;;;;;5.18;1.98;;;;;;;;;;5093746;28;20060;-37
2023/09/10 08:26:51;;;;;;;4.55;1.98;;;;;;;;;;5093863;28;20435;-38
2023/09/10 08:29:18;;;;;;;4.75;2.03;;;;;;;;;;5093640;28;20058;-37
2023/09/10 08:31:45;;;;;;;7.75;1.70;;;;;;;;;;5093525;28;20581;-37
2023/09/10 08:34:12;;;;;;;5.80;1.50;;;;;;;;;;5093546;28;20477;-37
2023/09/10 08:36:39;;;;;;;3.15;1.40;;;;;;;;;;5093131;28;20028;-38
2023/09/10 08:39:06;;;;;;;5.10;1.73;;;;;;;;;;5075337;28;20067;-37
2023/09/10 08:41:41;;;;;;;4.13;1.58;;;;;;;;;;5093556;28;20102;-37
2023/09/10 08:44:13;;;;;;;6.00;1.20;;;;;;;;;;5093537;28;20123;-37
2023/09/10 08:46:40;;;;;;;8.98;1.92;;;;;;;;;;5093330;28;20097;-37
2023/09/10 08:49:09;;;;;;;7.95;1.70;;;;;;;;;;5093288;28;20390;-37
2023/09/10 08:51:36;;;;;;;5.55;1.50;;;;;;;;;;5093303;28;20098;-38
2023/09/10 08:54:03;;;;;;;4.63;1.40;;;;;;;;;;5093247;28;20024;-37
2023/09/10 08:56:31;;;;;;;3.72;1.23;;;;;;;;;;5093279;28;20670;-37
2023/09/10 08:58:58;;;;;;;3.20;1.30;;;;;;;;;;5093098;28;20073;-37
2023/09/10 09:01:25;;;;;;;4.97;1.40;;;;;;;;;;5093205;28;20044;-37
2023/09/10 09:03:52;;;;;;;2.78;1.20;;;;;;;;;;5093106;28;20028;-38
2023/09/10 09:06:19;;;;;;;3.88;1.30;;;;;;;;;;5093021;28;20099;-37
2023/09/10 09:08:48;;;;;;;2.67;1.30;;;;;;;;;;5093038;28;20032;-37
2023/09/10 09:11:16;;;;;;;5.07;1.23;;;;;;;;;;5092808;28;20545;-37
2023/09/10 09:13:47;;;;;;;4.32;1.27;;;;;;;;;;5092841;28;20486;-38
2023/09/10 09:16:15;;;;;;;4.13;1.48;;;;;;;;;;5092824;28;20438;-37
2023/09/10 09:18:43;;;;;;;4.50;1.30;;;;;;;;;;5092858;28;20070;-37
2023/09/10 09:21:13;;;;;;;4.10;1.23;;;;;;;;;;5092819;28;20128;-37
2023/09/10 09:23:46;;;;;;;2.08;1.10;;;;;;;;;;5092627;28;20408;-37
2023/09/10 09:26:14;;;;;;;5.82;1.30;;;;;;;;;;5092681;28;20082;-37
2023/09/10 09:28:41;;;;;;;3.40;1.30;;;;;;;;;;5092432;28;20020;-37
2023/09/10 09:31:11;;;;;;;3.85;1.08;;;;;;;;;;5092396;28;20032;-37
2023/09/10 09:33:39;;;;;;;4.75;1.50;;;;;;;;;;5092343;28;20055;-37
2023/09/10 09:36:12;;;;;;;6.25;1.15;;;;;;;;;;5092306;28;20036;-38
2023/09/10 09:38:43;;;;;;;3.50;1.10;;;;;;;;;;5092452;28;20028;-37
2023/09/10 09:41:10;;;;;;;2.67;1.10;;;;;;;;;;5092338;28;20053;-37
2023/09/10 09:43:37;;;;;;;6.35;1.23;;;;;;;;;;5092076;28;20056;-37
2023/09/10 09:46:04;;;;;;;3.42;1.00;;;;;;;;;;5092122;28;20024;-37
2023/09/10 09:48:32;;;;;;;3.85;0.90;;;;;;;;;;5091367;28;20052;-37
2023/09/10 09:50:59;;;;;;;2.55;0.95;;;;;;;;;;5092036;28;20031;-37
2023/09/10 09:53:27;;;;;;;4.13;1.00;;;;;;;;;;5092076;28;20040;-37
2023/09/10 09:55:59;;;;;;;2.38;1.02;;;;;;;;;;5092123;28;20024;-37
2023/09/10 09:58:26;;;;;;;4.80;1.20;;;;;;;;;;5092028;28;20020;-37
2023/09/10 10:00:53;;;;;;;2.20;1.02;;;;;;;;;;5092047;28;20032;-37
2023/09/10 10:03:20;;;;;;;2.90;0.90;;;;;;;;;;5091839;28;20036;-37
2023/09/10 10:05:51;;;;;;;3.92;1.20;;;;;;;;;;5091893;28;20024;-37
2023/09/10 10:08:19;;;;;;;2.70;1.15;;;;;;;;;;5091870;28;20428;-37
2023/09/10 10:10:47;;;;;;;3.40;0.88;;;;;;;;;;5091670;28;20426;-38
2023/09/10 10:13:18;;;;;;;3.17;1.20;;;;;;;;;;5091610;28;20028;-37
2023/09/10 10:15:48;;;;;;;2.10;1.00;;;;;;;;;;5091864;28;20032;-37
2023/09/10 10:18:20;;;;;;;2.88;1.00;;;;;;;;;;5091771;28;20024;-37
2023/09/10 10:20:49;;;;;;;4.05;1.20;;;;;;;;;;5091839;28;21220;-37
2023/09/10 10:23:19;;;;;;;2.88;1.33;;;;;;;;;;5091508;28;20070;-37
2023/09/10 10:25:47;;;;;;;3.05;0.95;;;;;;;;;;5091641;28;20029;-37
2023/09/10 10:28:14;;;;;;;3.53;0.80;;;;;;;;;;5091678;28;20028;-37
2023/09/10 10:30:53;;;;;;;2.42;0.82;;;;;;;;;;5091531;28;20473;-38
2023/09/10 10:33:22;;;;;;;4.18;1.00;;;;;;;;;;5091545;28;20097;-37
2023/09/10 10:35:59;;;;;;;3.08;1.10;;;;;;;;;;5091695;28;20016;-37
2023/09/10 10:38:29;;;;;;;4.68;0.98;;;;;;;;;;5091564;28;20123;-37
2023/09/10 10:40:56;;;;;;;3.45;0.80;;;;;;;;;;5091547;28;20093;-37
2023/09/10 10:43:42;;;;;;;1.50;0.90;;;;;;;;;;5073572;28;20027;-37
2023/09/10 10:46:09;;;;;;;1.30;0.80;;;;;;;;;;5091330;28;20042;-38
2023/09/10 10:48:41;;;;;;;2.13;0.95;;;;;;;;;;5091339;28;20052;-37
2023/09/10 10:51:14;;;;;;;1.65;0.75;;;;;;;;;;5073053;28;20557;-37
2023/09/10 10:53:41;;;;;;;1.58;0.75;;;;;;;;;;5091322;28;20082;-37
2023/09/10 10:56:09;;;;;;;3.92;0.93;;;;;;;;;;5091491;28;20054;-37
2023/09/10 10:58:39;;;;;;;6.15;1.00;;;;;;;;;;5091294;28;20024;-37
2023/09/10 11:01:06;;;;;;;3.22;0.88;;;;;;;;;;5095264;28;20039;-37
2023/09/10 11:03:34;;;;;;;2.30;0.93;;;;;;;;;;5095231;28;20020;-37
2023/09/10 11:06:04;;;;;;;2.40;0.77;;;;;;;;;;5095320;28;20027;-37
2023/09/10 11:08:32;;;;;;;2.88;0.90;;;;;;;;;;5095300;28;20493;-37
2023/09/10 11:11:00;;;;;;;2.58;0.80;;;;;;;;;;5095105;28;20481;-37
2023/09/10 11:13:27;;;;;;;2.10;0.65;;;;;;;;;;5094915;28;20028;-37
2023/09/10 11:16:06;;;;;;;1.23;0.75;;;;;;;;;;5095023;28;20426;-37
2023/09/10 11:18:36;;;;;;;1.85;0.85;;;;;;;;;;5084030;28;20036;-37
2023/09/10 11:21:03;;;;;;;1.58;0.85;;;;;;;;;;5074738;28;20077;-37
2023/09/10 11:23:31;;;;;;;1.73;0.68;;;;;;;;;;5074507;28;20063;-37
2023/09/10 11:26:16;;;;;;;4.97;1.02;;;;;;;;;;5074386;28;20363;-37
2023/09/10 11:28:47;;;;;;;1.58;0.90;;;;;;;;;;5074571;28;20048;-37
2023/09/10 11:31:32;;;;;;;1.38;0.70;;;;;;;;;;5074426;28;20538;-37
2023/09/10 11:34:27;;;;;;;3.83;0.80;;;;;;;;;;5074448;28;20038;-37
2023/09/10 11:36:56;;;;;;;3.15;1.00;;;;;;;;;;5074297;28;20028;-37
2023/09/10 11:39:23;;;;;;;2.97;0.80;;;;;;;;;;5074378;28;20039;-37
2023/09/10 11:41:51;;;;;;;5.07;0.80;;;;;;;;;;5074349;28;20036;-37
2023/09/10 11:44:18;;;;;;;5.30;0.98;;;;;;;;;;5074244;28;20060;-37
2023/09/10 11:46:45;;;;;;;4.15;1.17;;;;;;;;;;5074146;28;20097;-37
2023/09/10 11:49:12;;;;;;;4.43;1.17;;;;;;;;;;5074227;28;20123;-37
2023/09/10 11:51:46;;;;;;;3.05;0.88;;;;;;;;;;5073962;28;20074;-37
2023/09/10 11:54:16;;;;;;;4.15;0.90;;;;;;;;;;5074150;28;20138;-37
2023/09/10 11:57:03;;;;;;;2.42;0.82;;;;;;;;;;5074228;28;20099;-37
2023/09/10 11:59:30;;;;;;;5.05;1.17;;;;;;;;;;5073924;28;20063;-37
2023/09/10 12:01:58;;;;;;;5.38;1.10;;;;;;;;;;5073968;28;20028;-37
2023/09/10 12:04:31;;;;;;;2.95;0.80;;;;;;;;;;5074013;28;20031;-37
2023/09/10 12:06:58;;;;;;;4.47;1.10;;;;;;;;;;5073929;28;20028;-37
2023/09/10 12:09:29;;;;;;;3.13;1.13;;;;;;;;;;5073924;28;20027;-37
2023/09/10 12:11:59;;;;;;;4.88;0.90;;;;;;;;;;5072853;28;20424;-36
2023/09/10 12:14:26;;;;;;;4.93;1.10;;;;;;;;;;5073855;28;20021;-37
2023/09/10 12:16:53;;;;;;;2.03;0.80;;;;;;;;;;5055711;28;20031;-37
2023/09/10 12:19:20;;;;;;;5.68;1.00;;;;;;;;;;5083949;28;20032;-37
2023/09/10 12:21:47;;;;;;;5.53;1.17;;;;;;;;;;5093785;28;20110;-37
2023/09/10 12:24:14;;;;;;;2.22;0.98;;;;;;;;;;5093816;28;20543;-37
2023/09/10 12:26:41;;;;;;;2.80;0.90;;;;;;;;;;5093855;28;20028;-37
2023/09/10 12:29:08;;;;;;;3.63;0.90;;;;;;;;;;5093535;28;20031;-37
2023/09/10 12:31:35;;;;;;;2.00;0.98;;;;;;;;;;5093517;28;20166;-37
2023/09/10 12:34:02;;;;;;;1.77;0.80;;;;;;;;;;5093674;28;20035;-37
2023/09/10 12:36:30;;;;;;;4.05;1.13;;;;;;;;;;5093613;28;20046;-37
2023/09/10 12:38:57;;;;;;;5.13;0.85;;;;;;;;;;5093322;28;20020;-37
2023/09/10 12:41:24;;;;;;;3.25;1.02;;;;;;;;;;5093422;28;20397;-37
2023/09/10 12:43:51;;;;;;;1.30;0.77;;;;;;;;;;5093429;28;20033;-37
2023/09/10 12:46:18;;;;;;;2.60;1.02;;;;;;;;;;5093221;28;20024;-41
2023/09/10 12:48:47;;;;;;;4.30;0.95;;;;;;;;;;5093379;28;20032;-37
2023/09/10 12:51:14;;;;;;;1.70;0.80;;;;;;;;;;5093046;28;20474;-38
2023/09/10 12:53:41;;;;;;;3.53;0.90;;;;;;;;;;5093158;28;20043;-37
2023/09/10 12:56:08;;;;;;;2.10;0.93;;;;;;;;;;5092753;28;20398;-37
2023/09/10 12:58:36;;;;;;;3.15;0.80;;;;;;;;;;5093135;28;20546;-37
2023/09/10 13:01:03;;;;;;;5.90;1.33;;;;;;;;;;5093101;28;20024;-37
2023/09/10 13:03:30;;;;;;;3.42;1.00;;;;;;;;;;5092894;28;20031;-37
2023/09/10 13:05:57;;;;;;;3.47;1.02;;;;;;;;;;5092997;28;20027;-37
2023/09/10 13:08:24;;;;;;;2.38;1.05;;;;;;;;;;5091754;28;20105;-38
2023/09/10 13:10:51;;;;;;;1.23;0.70;;;;;;;;;;5089576;28;20044;-37
2023/09/10 13:13:18;;;;;;;3.40;0.85;;;;;;;;;;5087574;28;20490;-37
2023/09/10 13:15:45;;;;;;;2.63;0.70;;;;;;;;;;5076703;28;20024;-37
2023/09/10 13:18:12;;;;;;;2.65;0.98;;;;;;;;;;5088312;28;20039;-37
2023/09/10 13:20:39;;;;;;;4.18;0.98;;;;;;;;;;5088235;28;20031;-40
2023/09/10 13:23:06;;;;;;;3.00;0.90;;;;;;;;;;5085442;28;20025;-37
2023/09/10 13:25:33;;;;;;;5.97;1.25;;;;;;;;;;5072261;28;20398;-37
2023/09/10 13:28:00;;;;;;;3.75;0.93;;;;;;;;;;5085288;28;20557;-37
2023/09/10 13:30:27;;;;;;;2.58;1.00;;;;;;;;;;5087996;28;20050;-37
2023/09/10 13:32:54;;;;;;;1.98;0.90;;;;;;;;;;5085802;28;20460;-37
2023/09/10 13:35:23;;;;;;;2.40;0.80;;;;;;;;;;5087414;28;20137;-38
2023/09/10 13:37:50;;;;;;;3.35;1.00;;;;;;;;;;5083079;28;20032;-37
2023/09/10 13:40:17;;;;;;;3.42;0.80;;;;;;;;;;5087936;28;20430;-37
2023/09/10 13:42:45;;;;;;;3.22;1.00;;;;;;;;;;5082096;28;20029;-37
2023/09/10 13:45:12;;;;;;;4.07;0.80;;;;;;;;;;5087923;28;20020;-38
2023/09/10 13:47:39;;;;;;;3.42;0.73;;;;;;;;;;5088388;28;20051;-37
2023/09/10 13:50:06;;;;;;;1.45;0.80;;;;;;;;;;5086584;28;20028;-38
2023/09/10 13:52:33;;;;;;;5.88;1.17;;;;;;;;;;5091738;28;20040;-37
2023/09/10 13:55:00;;;;;;;9.27;1.50;;;;;;;;;;5091838;28;20024;-37
2023/09/10 13:57:27;;;;;;;4.18;1.10;;;;;;;;;;5091873;28;20032;-37
2023/09/10 13:59:54;;;;;;;4.53;1.33;;;;;;;;;;5091693;28;20505;-37
2023/09/10 14:02:21;;;;;;;5.75;1.08;;;;;;;;;;5079806;28;20036;-37
2023/09/10 14:04:48;;;;;;;6.57;1.55;;;;;;;;;;5083899;28;20024;-37
2023/09/10 14:07:15;;;;;;;12.43;1.70;;;;;;;;;;5091077;28;20027;-37
2023/09/10 14:09:42;;;;;;;4.35;1.10;;;;;;;;;;5090931;28;20413;-37
2023/09/10 14:12:09;;;;;;;6.20;1.30;;;;;;;;;;5090893;28;20497;-37
2023/09/10 14:14:36;;;;;;;12.60;1.40;;;;;;;;;;5091103;28;20020;-37
2023/09/10 14:17:03;;;;;;;7.85;1.40;;;;;;;;;;5091077;28;20016;-37
2023/09/10 14:19:30;;;;;;;8.43;1.30;;;;;;;;;;5062020;28;20024;-37
2023/09/10 14:21:57;;;;;;;12.63;1.40;;;;;;;;;;5091432;28;20024;-37
2023/09/10 14:24:27;;;;;;;13.32;1.90;;;;;;;;;;5086520;28;20024;-45
2023/09/10 14:26:55;;;;;;;11.35;1.52;;;;;;;;;;5082630;28;20379;-44
2023/09/10 14:29:22;;;;;;;10.68;1.50;;;;;;;;;;5075820;28;20099;-44
2023/09/10 14:31:49;;;;;;;18.73;1.70;;;;;;;;;;5087456;28;20036;-45
2023/09/10 14:34:16;;;;;;;13.60;1.50;;;;;;;;;;5085626;28;20028;-44
2023/09/10 14:36:43;;;;;;;15.18;2.05;;;;;;;;;;5090062;28;20474;-44
2023/09/10 14:39:11;;;;;;;24.80;1.80;;;;;;;;;;5082997;28;20024;-42
2023/09/10 14:41:57;;;;;;;22.67;2.47;;;;;;;;;;5138882;22;20072;-45
2023/09/10 14:44:25;;;;;;;13.23;1.80;;;;;;;;;;5049361;28;20486;-41
2023/09/10 14:46:52;;;;;;;16.75;1.95;;;;;;;;;;5051308;28;20025;-42